sensor_id;sensor_type;location;lat;lon;timestamp;P1;durP1;ratioP1;P2;durP2;ratioP2
38843;SDS011;24596;48.080;8.362;2023-07-29T00:02:21;6.47;;;1.80;;
38843;SDS011;24596;48.080;8.362;2023-07-29T00:04:47;2.20;;;1.23;;
38843;SDS011;24596;48.080;8.362;2023-07-29T00:07:12;3.37;;;1.50;;
38843;SDS011;24596;48.080;8.362;2023-07-29T00:09:37;3.22;;;1.40;;
38843;SDS011;24596;48.080;8.362;2023-07-29T00:12:03;4.78;;;1.73;;
38843;SDS011;24596;48.080;8.362;2023-07-29T00:14:28;3.55;;;1.48;;
38843;SDS011;24596;48.080;8.362;2023-07-29T00:16:54;8.95;;;1.50;;
38843;SDS011;24596;48.080;8.362;2023-07-29T00:19:19;4.50;;;1.67;;
38843;SDS011;24596;48.080;8.362;2023-07-29T00:21:48;3.90;;;1.55;;
38843;SDS011;24596;48.080;8.362;2023-07-29T00:24:13;7.30;;;1.70;;
38843;SDS011;24596;48.080;8.362;2023-07-29T00:26:38;4.50;;;1.48;;
38843;SDS011;24596;48.080;8.362;2023-07-29T00:29:03;2.88;;;1.40;;
38843;SDS011;24596;48.080;8.362;2023-07-29T00:31:29;5.63;;;1.70;;
38843;SDS011;24596;48.080;8.362;2023-07-29T00:33:54;6.28;;;2.03;;
38843;SDS011;24596;48.080;8.362;2023-07-29T00:36:19;3.80;;;1.13;;
38843;SDS011;24596;48.080;8.362;2023-07-29T00:38:45;5.00;;;1.58;;
38843;SDS011;24596;48.080;8.362;2023-07-29T00:41:10;5.93;;;1.67;;
38843;SDS011;24596;48.080;8.362;2023-07-29T00:43:38;9.18;;;1.88;;
38843;SDS011;24596;48.080;8.362;2023-07-29T00:46:03;8.05;;;1.80;;
38843;SDS011;24596;48.080;8.362;2023-07-29T00:48:29;5.75;;;1.65;;
38843;SDS011;24596;48.080;8.362;2023-07-29T00:50:54;3.20;;;1.70;;
38843;SDS011;24596;48.080;8.362;2023-07-29T00:53:20;5.40;;;1.42;;
38843;SDS011;24596;48.080;8.362;2023-07-29T00:55:45;8.68;;;1.50;;
38843;SDS011;24596;48.080;8.362;2023-07-29T00:58:10;5.35;;;1.60;;
38843;SDS011;24596;48.080;8.362;2023-07-29T01:00:35;3.13;;;1.50;;
38843;SDS011;24596;48.080;8.362;2023-07-29T01:03:00;4.82;;;1.33;;
38843;SDS011;24596;48.080;8.362;2023-07-29T01:05:27;7.05;;;1.92;;
38843;SDS011;24596;48.080;8.362;2023-07-29T01:08:13;4.22;;;1.48;;
38843;SDS011;24596;48.080;8.362;2023-07-29T01:15:55;4.40;;;1.05;;
38843;SDS011;24596;48.080;8.362;2023-07-29T01:18:24;7.40;;;1.23;;
38843;SDS011;24596;48.080;8.362;2023-07-29T01:20:52;5.10;;;1.25;;
38843;SDS011;24596;48.080;8.362;2023-07-29T01:23:23;5.90;;;1.02;;
38843;SDS011;24596;48.080;8.362;2023-07-29T01:25:48;10.20;;;1.58;;
38843;SDS011;24596;48.080;8.362;2023-07-29T01:28:13;2.40;;;1.30;;
38843;SDS011;24596;48.080;8.362;2023-07-29T01:30:39;3.42;;;1.45;;
38843;SDS011;24596;48.080;8.362;2023-07-29T01:33:18;3.70;;;1.27;;
38843;SDS011;24596;48.080;8.362;2023-07-29T01:35:46;3.75;;;1.00;;
38843;SDS011;24596;48.080;8.362;2023-07-29T01:38:24;4.32;;;1.27;;
38843;SDS011;24596;48.080;8.362;2023-07-29T01:40:53;3.22;;;0.98;;
38843;SDS011;24596;48.080;8.362;2023-07-29T01:43:18;2.50;;;1.10;;
38843;SDS011;24596;48.080;8.362;2023-07-29T01:45:48;2.75;;;1.08;;
38843;SDS011;24596;48.080;8.362;2023-07-29T01:48:13;17.08;;;1.60;;
38843;SDS011;24596;48.080;8.362;2023-07-29T01:50:38;4.07;;;1.00;;
38843;SDS011;24596;48.080;8.362;2023-07-29T01:53:03;7.15;;;1.15;;
38843;SDS011;24596;48.080;8.362;2023-07-29T01:55:29;8.40;;;1.30;;
38843;SDS011;24596;48.080;8.362;2023-07-29T01:57:54;2.65;;;1.13;;
38843;SDS011;24596;48.080;8.362;2023-07-29T02:00:21;2.38;;;0.80;;
38843;SDS011;24596;48.080;8.362;2023-07-29T02:02:46;4.72;;;0.82;;
38843;SDS011;24596;48.080;8.362;2023-07-29T02:05:11;1.42;;;0.85;;
38843;SDS011;24596;48.080;8.362;2023-07-29T02:07:36;5.97;;;1.10;;
38843;SDS011;24596;48.080;8.362;2023-07-29T02:10:02;3.17;;;0.90;;
38843;SDS011;24596;48.080;8.362;2023-07-29T02:12:27;2.33;;;0.90;;
38843;SDS011;24596;48.080;8.362;2023-07-29T02:14:52;9.23;;;1.05;;
38843;SDS011;24596;48.080;8.362;2023-07-29T02:17:18;3.13;;;0.90;;
38843;SDS011;24596;48.080;8.362;2023-07-29T02:19:43;3.17;;;1.25;;
38843;SDS011;24596;48.080;8.362;2023-07-29T02:22:09;4.72;;;0.95;;
38843;SDS011;24596;48.080;8.362;2023-07-29T02:24:35;5.43;;;0.88;;
38843;SDS011;24596;48.080;8.362;2023-07-29T02:27:00;7.25;;;0.85;;
38843;SDS011;24596;48.080;8.362;2023-07-29T02:29:28;1.13;;;0.60;;
38843;SDS011;24596;48.080;8.362;2023-07-29T02:31:54;3.33;;;0.85;;
38843;SDS011;24596;48.080;8.362;2023-07-29T02:34:19;1.38;;;0.63;;
38843;SDS011;24596;48.080;8.362;2023-07-29T02:36:44;4.68;;;0.93;;
38843;SDS011;24596;48.080;8.362;2023-07-29T02:39:10;2.83;;;0.68;;
38843;SDS011;24596;48.080;8.362;2023-07-29T02:41:35;5.57;;;0.70;;
38843;SDS011;24596;48.080;8.362;2023-07-29T02:44:01;2.42;;;0.90;;
38843;SDS011;24596;48.080;8.362;2023-07-29T02:46:26;4.50;;;0.80;;
38843;SDS011;24596;48.080;8.362;2023-07-29T02:48:51;1.53;;;0.60;;
38843;SDS011;24596;48.080;8.362;2023-07-29T02:51:16;1.67;;;0.70;;
38843;SDS011;24596;48.080;8.362;2023-07-29T02:53:42;1.33;;;0.70;;
38843;SDS011;24596;48.080;8.362;2023-07-29T02:56:07;3.85;;;0.90;;
38843;SDS011;24596;48.080;8.362;2023-07-29T02:58:34;2.03;;;0.60;;
38843;SDS011;24596;48.080;8.362;2023-07-29T03:01:02;4.72;;;0.73;;
38843;SDS011;24596;48.080;8.362;2023-07-29T03:03:28;3.63;;;0.80;;
38843;SDS011;24596;48.080;8.362;2023-07-29T03:05:58;6.28;;;0.93;;
38843;SDS011;24596;48.080;8.362;2023-07-29T03:08:23;2.55;;;0.55;;
38843;SDS011;24596;48.080;8.362;2023-07-29T03:10:48;2.57;;;0.90;;
38843;SDS011;24596;48.080;8.362;2023-07-29T03:13:13;3.92;;;1.50;;
38843;SDS011;24596;48.080;8.362;2023-07-29T03:15:38;3.97;;;1.63;;
38843;SDS011;24596;48.080;8.362;2023-07-29T03:18:04;2.80;;;1.60;;
38843;SDS011;24596;48.080;8.362;2023-07-29T03:20:29;7.78;;;2.20;;
38843;SDS011;24596;48.080;8.362;2023-07-29T03:22:54;4.38;;;1.60;;
38843;SDS011;24596;48.080;8.362;2023-07-29T03:25:19;3.15;;;1.20;;
38843;SDS011;24596;48.080;8.362;2023-07-29T03:27:44;3.25;;;1.23;;
38843;SDS011;24596;48.080;8.362;2023-07-29T03:30:10;2.63;;;1.00;;
38843;SDS011;24596;48.080;8.362;2023-07-29T03:32:35;5.65;;;1.15;;
38843;SDS011;24596;48.080;8.362;2023-07-29T03:35:00;2.17;;;1.13;;
38843;SDS011;24596;48.080;8.362;2023-07-29T03:37:25;3.70;;;1.15;;
38843;SDS011;24596;48.080;8.362;2023-07-29T03:39:51;6.40;;;0.90;;
38843;SDS011;24596;48.080;8.362;2023-07-29T03:42:17;2.72;;;0.77;;
38843;SDS011;24596;48.080;8.362;2023-07-29T03:44:42;3.80;;;0.93;;
38843;SDS011;24596;48.080;8.362;2023-07-29T03:47:07;10.33;;;1.10;;
38843;SDS011;24596;48.080;8.362;2023-07-29T03:49:33;5.72;;;1.00;;
38843;SDS011;24596;48.080;8.362;2023-07-29T03:51:58;1.42;;;0.73;;
38843;SDS011;24596;48.080;8.362;2023-07-29T03:54:23;1.65;;;0.80;;
38843;SDS011;24596;48.080;8.362;2023-07-29T03:56:48;4.43;;;1.07;;
38843;SDS011;24596;48.080;8.362;2023-07-29T03:59:13;5.05;;;1.00;;
38843;SDS011;24596;48.080;8.362;2023-07-29T04:01:39;5.28;;;0.77;;
38843;SDS011;24596;48.080;8.362;2023-07-29T04:04:04;3.00;;;1.13;;
38843;SDS011;24596;48.080;8.362;2023-07-29T04:06:29;2.75;;;0.70;;
38843;SDS011;24596;48.080;8.362;2023-07-29T04:08:55;2.92;;;0.73;;
38843;SDS011;24596;48.080;8.362;2023-07-29T04:11:20;5.47;;;1.10;;
38843;SDS011;24596;48.080;8.362;2023-07-29T04:13:45;2.47;;;1.42;;
38843;SDS011;24596;48.080;8.362;2023-07-29T04:16:11;4.25;;;1.40;;
38843;SDS011;24596;48.080;8.362;2023-07-29T04:18:36;4.87;;;1.07;;
38843;SDS011;24596;48.080;8.362;2023-07-29T04:21:01;6.40;;;0.90;;
38843;SDS011;24596;48.080;8.362;2023-07-29T04:23:26;2.42;;;0.88;;
38843;SDS011;24596;48.080;8.362;2023-07-29T04:25:52;3.35;;;0.95;;
38843;SDS011;24596;48.080;8.362;2023-07-29T04:28:17;3.77;;;1.27;;
38843;SDS011;24596;48.080;8.362;2023-07-29T04:30:42;6.22;;;2.03;;
38843;SDS011;24596;48.080;8.362;2023-07-29T04:33:07;3.92;;;1.40;;
38843;SDS011;24596;48.080;8.362;2023-07-29T04:35:33;2.00;;;1.00;;
38843;SDS011;24596;48.080;8.362;2023-07-29T04:37:58;3.33;;;1.65;;
38843;SDS011;24596;48.080;8.362;2023-07-29T04:40:23;7.18;;;2.20;;
38843;SDS011;24596;48.080;8.362;2023-07-29T04:42:49;5.18;;;1.70;;
38843;SDS011;24596;48.080;8.362;2023-07-29T04:45:14;4.03;;;1.90;;
38843;SDS011;24596;48.080;8.362;2023-07-29T04:47:39;5.35;;;2.20;;
38843;SDS011;24596;48.080;8.362;2023-07-29T04:50:04;4.93;;;2.10;;
38843;SDS011;24596;48.080;8.362;2023-07-29T04:52:31;9.10;;;1.75;;
38843;SDS011;24596;48.080;8.362;2023-07-29T04:54:56;3.25;;;1.35;;
38843;SDS011;24596;48.080;8.362;2023-07-29T04:57:21;6.13;;;1.30;;
38843;SDS011;24596;48.080;8.362;2023-07-29T04:59:47;5.75;;;1.42;;
38843;SDS011;24596;48.080;8.362;2023-07-29T05:02:12;4.28;;;1.50;;
38843;SDS011;24596;48.080;8.362;2023-07-29T05:04:37;4.57;;;1.50;;
38843;SDS011;24596;48.080;8.362;2023-07-29T05:07:02;4.80;;;1.80;;
38843;SDS011;24596;48.080;8.362;2023-07-29T05:09:27;10.82;;;1.85;;
38843;SDS011;24596;48.080;8.362;2023-07-29T05:11:53;4.22;;;2.00;;
38843;SDS011;24596;48.080;8.362;2023-07-29T05:14:18;4.60;;;1.88;;
38843;SDS011;24596;48.080;8.362;2023-07-29T05:16:43;7.75;;;2.35;;
38843;SDS011;24596;48.080;8.362;2023-07-29T05:19:09;6.35;;;2.00;;
38843;SDS011;24596;48.080;8.362;2023-07-29T05:21:34;6.30;;;1.73;;
38843;SDS011;24596;48.080;8.362;2023-07-29T05:23:59;4.00;;;2.08;;
38843;SDS011;24596;48.080;8.362;2023-07-29T05:26:25;8.52;;;1.80;;
38843;SDS011;24596;48.080;8.362;2023-07-29T05:28:50;4.93;;;2.00;;
38843;SDS011;24596;48.080;8.362;2023-07-29T05:31:15;4.50;;;1.83;;
38843;SDS011;24596;48.080;8.362;2023-07-29T05:33:40;5.93;;;2.03;;
38843;SDS011;24596;48.080;8.362;2023-07-29T05:36:06;5.57;;;1.98;;
38843;SDS011;24596;48.080;8.362;2023-07-29T05:38:31;5.63;;;2.05;;
38843;SDS011;24596;48.080;8.362;2023-07-29T05:40:56;4.50;;;1.92;;
38843;SDS011;24596;48.080;8.362;2023-07-29T05:43:21;5.18;;;1.70;;
38843;SDS011;24596;48.080;8.362;2023-07-29T05:45:47;4.43;;;2.00;;
38843;SDS011;24596;48.080;8.362;2023-07-29T05:48:12;7.20;;;2.13;;
38843;SDS011;24596;48.080;8.362;2023-07-29T05:50:37;5.07;;;1.95;;
38843;SDS011;24596;48.080;8.362;2023-07-29T05:53:02;4.33;;;2.00;;
38843;SDS011;24596;48.080;8.362;2023-07-29T05:55:27;6.23;;;1.93;;
38843;SDS011;24596;48.080;8.362;2023-07-29T05:57:53;6.32;;;2.10;;
38843;SDS011;24596;48.080;8.362;2023-07-29T06:00:18;4.50;;;2.15;;
38843;SDS011;24596;48.080;8.362;2023-07-29T06:02:43;3.67;;;1.90;;
38843;SDS011;24596;48.080;8.362;2023-07-29T06:05:09;5.97;;;2.03;;
38843;SDS011;24596;48.080;8.362;2023-07-29T06:07:34;7.68;;;2.38;;
38843;SDS011;24596;48.080;8.362;2023-07-29T06:09:59;5.50;;;2.10;;
38843;SDS011;24596;48.080;8.362;2023-07-29T06:12:25;7.72;;;2.35;;
38843;SDS011;24596;48.080;8.362;2023-07-29T06:14:50;7.10;;;2.63;;
38843;SDS011;24596;48.080;8.362;2023-07-29T06:17:15;6.47;;;2.30;;
38843;SDS011;24596;48.080;8.362;2023-07-29T06:19:40;6.43;;;2.10;;
38843;SDS011;24596;48.080;8.362;2023-07-29T06:22:05;4.43;;;1.60;;
38843;SDS011;24596;48.080;8.362;2023-07-29T06:24:31;5.20;;;2.42;;
38843;SDS011;24596;48.080;8.362;2023-07-29T06:26:57;4.65;;;2.35;;
38843;SDS011;24596;48.080;8.362;2023-07-29T06:29:22;7.37;;;2.30;;
38843;SDS011;24596;48.080;8.362;2023-07-29T06:31:47;11.27;;;5.10;;
38843;SDS011;24596;48.080;8.362;2023-07-29T06:34:12;8.93;;;4.05;;
38843;SDS011;24596;48.080;8.362;2023-07-29T06:36:38;5.30;;;2.00;;
38843;SDS011;24596;48.080;8.362;2023-07-29T06:39:03;7.00;;;2.50;;
38843;SDS011;24596;48.080;8.362;2023-07-29T06:41:28;4.97;;;1.98;;
38843;SDS011;24596;48.080;8.362;2023-07-29T06:43:53;6.30;;;2.50;;
38843;SDS011;24596;48.080;8.362;2023-07-29T06:46:18;6.53;;;2.53;;
38843;SDS011;24596;48.080;8.362;2023-07-29T06:48:44;3.55;;;1.83;;
38843;SDS011;24596;48.080;8.362;2023-07-29T06:51:09;4.40;;;1.90;;
38843;SDS011;24596;48.080;8.362;2023-07-29T06:53:34;4.15;;;1.95;;
38843;SDS011;24596;48.080;8.362;2023-07-29T06:56:00;5.78;;;2.28;;
38843;SDS011;24596;48.080;8.362;2023-07-29T06:58:26;5.57;;;2.05;;
38843;SDS011;24596;48.080;8.362;2023-07-29T07:00:51;5.80;;;2.08;;
38843;SDS011;24596;48.080;8.362;2023-07-29T07:03:16;4.03;;;1.93;;
38843;SDS011;24596;48.080;8.362;2023-07-29T07:05:41;4.30;;;1.83;;
38843;SDS011;24596;48.080;8.362;2023-07-29T07:08:06;6.63;;;2.22;;
38843;SDS011;24596;48.080;8.362;2023-07-29T07:10:32;4.33;;;2.33;;
38843;SDS011;24596;48.080;8.362;2023-07-29T07:12:58;5.22;;;2.08;;
38843;SDS011;24596;48.080;8.362;2023-07-29T07:15:24;7.30;;;2.58;;
38843;SDS011;24596;48.080;8.362;2023-07-29T07:17:49;7.35;;;2.03;;
38843;SDS011;24596;48.080;8.362;2023-07-29T07:20:15;5.47;;;2.05;;
38843;SDS011;24596;48.080;8.362;2023-07-29T07:22:41;6.80;;;2.00;;
38843;SDS011;24596;48.080;8.362;2023-07-29T07:25:06;5.05;;;1.83;;
38843;SDS011;24596;48.080;8.362;2023-07-29T07:27:32;5.32;;;1.95;;
38843;SDS011;24596;48.080;8.362;2023-07-29T07:29:57;4.30;;;1.80;;
38843;SDS011;24596;48.080;8.362;2023-07-29T07:32:22;4.77;;;2.17;;
38843;SDS011;24596;48.080;8.362;2023-07-29T07:34:47;5.90;;;1.90;;
38843;SDS011;24596;48.080;8.362;2023-07-29T07:37:12;4.87;;;1.80;;
38843;SDS011;24596;48.080;8.362;2023-07-29T07:39:38;4.97;;;1.90;;
38843;SDS011;24596;48.080;8.362;2023-07-29T07:42:03;4.82;;;2.03;;
38843;SDS011;24596;48.080;8.362;2023-07-29T07:44:28;4.40;;;2.20;;
38843;SDS011;24596;48.080;8.362;2023-07-29T07:46:54;5.60;;;2.25;;
38843;SDS011;24596;48.080;8.362;2023-07-29T07:49:19;6.60;;;2.80;;
38843;SDS011;24596;48.080;8.362;2023-07-29T07:51:44;6.47;;;2.38;;
38843;SDS011;24596;48.080;8.362;2023-07-29T07:54:09;5.65;;;2.58;;
38843;SDS011;24596;48.080;8.362;2023-07-29T07:56:35;5.80;;;2.50;;
38843;SDS011;24596;48.080;8.362;2023-07-29T07:59:00;5.55;;;2.75;;
38843;SDS011;24596;48.080;8.362;2023-07-29T08:01:25;4.43;;;2.40;;
38843;SDS011;24596;48.080;8.362;2023-07-29T08:03:50;8.50;;;2.63;;
38843;SDS011;24596;48.080;8.362;2023-07-29T08:06:16;10.80;;;3.28;;
38843;SDS011;24596;48.080;8.362;2023-07-29T08:08:41;8.18;;;3.05;;
38843;SDS011;24596;48.080;8.362;2023-07-29T08:11:06;4.50;;;2.17;;
38843;SDS011;24596;48.080;8.362;2023-07-29T08:13:31;5.78;;;2.75;;
38843;SDS011;24596;48.080;8.362;2023-07-29T08:15:57;5.38;;;2.90;;
38843;SDS011;24596;48.080;8.362;2023-07-29T08:18:22;4.90;;;2.30;;
38843;SDS011;24596;48.080;8.362;2023-07-29T08:20:57;6.28;;;2.60;;
38843;SDS011;24596;48.080;8.362;2023-07-29T08:23:24;5.32;;;2.95;;
38843;SDS011;24596;48.080;8.362;2023-07-29T08:25:51;7.43;;;2.90;;
38843;SDS011;24596;48.080;8.362;2023-07-29T08:28:16;6.63;;;2.60;;
38843;SDS011;24596;48.080;8.362;2023-07-29T08:30:41;4.82;;;2.50;;
38843;SDS011;24596;48.080;8.362;2023-07-29T08:33:07;6.28;;;3.25;;
38843;SDS011;24596;48.080;8.362;2023-07-29T08:35:32;5.50;;;3.30;;
38843;SDS011;24596;48.080;8.362;2023-07-29T08:37:57;6.45;;;3.40;;
38843;SDS011;24596;48.080;8.362;2023-07-29T08:40:23;6.57;;;3.25;;
38843;SDS011;24596;48.080;8.362;2023-07-29T08:42:50;8.15;;;2.75;;
38843;SDS011;24596;48.080;8.362;2023-07-29T08:45:16;6.38;;;2.88;;
38843;SDS011;24596;48.080;8.362;2023-07-29T08:47:42;5.97;;;2.80;;
38843;SDS011;24596;48.080;8.362;2023-07-29T08:50:07;6.75;;;2.78;;
38843;SDS011;24596;48.080;8.362;2023-07-29T08:52:32;5.60;;;2.60;;
38843;SDS011;24596;48.080;8.362;2023-07-29T08:54:59;5.45;;;2.63;;
38843;SDS011;24596;48.080;8.362;2023-07-29T08:57:25;5.30;;;2.63;;
38843;SDS011;24596;48.080;8.362;2023-07-29T08:59:51;5.85;;;2.53;;
38843;SDS011;24596;48.080;8.362;2023-07-29T09:02:16;5.33;;;3.20;;
38843;SDS011;24596;48.080;8.362;2023-07-29T09:04:42;5.30;;;2.40;;
38843;SDS011;24596;48.080;8.362;2023-07-29T09:07:07;7.00;;;2.90;;
38843;SDS011;24596;48.080;8.362;2023-07-29T09:09:32;6.70;;;3.60;;
38843;SDS011;24596;48.080;8.362;2023-07-29T09:11:58;5.90;;;2.97;;
38843;SDS011;24596;48.080;8.362;2023-07-29T09:14:23;7.45;;;3.05;;
38843;SDS011;24596;48.080;8.362;2023-07-29T09:16:48;5.65;;;3.03;;
38843;SDS011;24596;48.080;8.362;2023-07-29T09:19:14;6.05;;;3.30;;
38843;SDS011;24596;48.080;8.362;2023-07-29T09:21:39;7.50;;;3.50;;
38843;SDS011;24596;48.080;8.362;2023-07-29T09:24:05;7.40;;;3.70;;
38843;SDS011;24596;48.080;8.362;2023-07-29T09:26:32;6.75;;;2.97;;
38843;SDS011;24596;48.080;8.362;2023-07-29T09:28:58;7.25;;;2.97;;
38843;SDS011;24596;48.080;8.362;2023-07-29T09:31:24;5.32;;;2.80;;
38843;SDS011;24596;48.080;8.362;2023-07-29T09:33:49;7.60;;;2.90;;
38843;SDS011;24596;48.080;8.362;2023-07-29T09:36:15;6.53;;;3.30;;
38843;SDS011;24596;48.080;8.362;2023-07-29T09:38:40;8.40;;;2.95;;
38843;SDS011;24596;48.080;8.362;2023-07-29T09:41:05;6.00;;;2.90;;
38843;SDS011;24596;48.080;8.362;2023-07-29T09:43:32;6.10;;;2.80;;
38843;SDS011;24596;48.080;8.362;2023-07-29T09:46:01;6.35;;;2.65;;
38843;SDS011;24596;48.080;8.362;2023-07-29T09:48:26;5.25;;;2.78;;
38843;SDS011;24596;48.080;8.362;2023-07-29T09:50:53;7.95;;;3.45;;
38843;SDS011;24596;48.080;8.362;2023-07-29T09:53:18;7.25;;;2.65;;
38843;SDS011;24596;48.080;8.362;2023-07-29T09:55:47;5.45;;;2.47;;
38843;SDS011;24596;48.080;8.362;2023-07-29T09:58:36;5.53;;;2.60;;
38843;SDS011;24596;48.080;8.362;2023-07-29T10:01:03;6.40;;;2.50;;
38843;SDS011;24596;48.080;8.362;2023-07-29T10:03:28;7.13;;;3.05;;
38843;SDS011;24596;48.080;8.362;2023-07-29T10:05:54;7.68;;;2.63;;
38843;SDS011;24596;48.080;8.362;2023-07-29T10:08:20;5.70;;;2.57;;
38843;SDS011;24596;48.080;8.362;2023-07-29T10:10:47;5.30;;;2.63;;
38843;SDS011;24596;48.080;8.362;2023-07-29T10:13:14;8.13;;;3.00;;
38843;SDS011;24596;48.080;8.362;2023-07-29T10:15:40;5.30;;;2.30;;
38843;SDS011;24596;48.080;8.362;2023-07-29T10:18:05;5.68;;;2.58;;
38843;SDS011;24596;48.080;8.362;2023-07-29T10:20:30;5.75;;;2.58;;
38843;SDS011;24596;48.080;8.362;2023-07-29T10:22:59;5.70;;;2.50;;
38843;SDS011;24596;48.080;8.362;2023-07-29T10:25:24;6.35;;;2.80;;
38843;SDS011;24596;48.080;8.362;2023-07-29T10:30:15;4.87;;;2.67;;
38843;SDS011;24596;48.080;8.362;2023-07-29T10:32:43;6.03;;;2.38;;
38843;SDS011;24596;48.080;8.362;2023-07-29T10:35:09;4.90;;;2.45;;
38843;SDS011;24596;48.080;8.362;2023-07-29T10:37:35;4.60;;;2.42;;
38843;SDS011;24596;48.080;8.362;2023-07-29T10:40:00;4.35;;;2.20;;
38843;SDS011;24596;48.080;8.362;2023-07-29T10:42:28;5.67;;;2.40;;
38843;SDS011;24596;48.080;8.362;2023-07-29T10:44:54;4.82;;;2.40;;
38843;SDS011;24596;48.080;8.362;2023-07-29T10:47:20;4.90;;;2.33;;
38843;SDS011;24596;48.080;8.362;2023-07-29T10:49:50;4.78;;;2.20;;
38843;SDS011;24596;48.080;8.362;2023-07-29T10:52:17;5.90;;;2.47;;
38843;SDS011;24596;48.080;8.362;2023-07-29T10:54:52;5.45;;;2.45;;
38843;SDS011;24596;48.080;8.362;2023-07-29T10:57:30;5.10;;;2.28;;
38843;SDS011;24596;48.080;8.362;2023-07-29T10:59:56;6.40;;;2.15;;
38843;SDS011;24596;48.080;8.362;2023-07-29T11:02:22;6.80;;;2.30;;
38843;SDS011;24596;48.080;8.362;2023-07-29T11:04:53;7.30;;;2.30;;
38843;SDS011;24596;48.080;8.362;2023-07-29T11:07:18;5.03;;;1.85;;
38843;SDS011;24596;48.080;8.362;2023-07-29T11:17:34;3.65;;;1.83;;
38843;SDS011;24596;48.080;8.362;2023-07-29T11:20:03;5.97;;;2.13;;
38843;SDS011;24596;48.080;8.362;2023-07-29T11:22:28;3.75;;;1.85;;
38843;SDS011;24596;48.080;8.362;2023-07-29T11:24:54;5.10;;;1.70;;
38843;SDS011;24596;48.080;8.362;2023-07-29T11:27:19;6.85;;;2.30;;
38843;SDS011;24596;48.080;8.362;2023-07-29T11:29:44;4.60;;;2.10;;
38843;SDS011;24596;48.080;8.362;2023-07-29T11:32:09;5.50;;;2.60;;
38843;SDS011;24596;48.080;8.362;2023-07-29T11:34:35;4.32;;;1.85;;
38843;SDS011;24596;48.080;8.362;2023-07-29T11:37:00;6.45;;;2.20;;
38843;SDS011;24596;48.080;8.362;2023-07-29T11:39:25;6.25;;;2.53;;
38843;SDS011;24596;48.080;8.362;2023-07-29T11:41:50;4.57;;;2.20;;
38843;SDS011;24596;48.080;8.362;2023-07-29T11:44:19;4.70;;;2.07;;
38843;SDS011;24596;48.080;8.362;2023-07-29T11:46:44;3.28;;;1.77;;
38843;SDS011;24596;48.080;8.362;2023-07-29T11:49:09;4.03;;;2.17;;
38843;SDS011;24596;48.080;8.362;2023-07-29T11:51:35;5.60;;;2.55;;
38843;SDS011;24596;48.080;8.362;2023-07-29T11:54:00;4.18;;;2.30;;
38843;SDS011;24596;48.080;8.362;2023-07-29T11:56:26;5.28;;;2.38;;
38843;SDS011;24596;48.080;8.362;2023-07-29T11:58:52;5.75;;;2.05;;
38843;SDS011;24596;48.080;8.362;2023-07-29T12:01:18;4.65;;;2.35;;
38843;SDS011;24596;48.080;8.362;2023-07-29T12:03:43;4.90;;;1.90;;
38843;SDS011;24596;48.080;8.362;2023-07-29T12:06:09;5.90;;;2.30;;
38843;SDS011;24596;48.080;8.362;2023-07-29T12:08:34;3.85;;;2.10;;
38843;SDS011;24596;48.080;8.362;2023-07-29T12:10:59;6.45;;;2.20;;
38843;SDS011;24596;48.080;8.362;2023-07-29T12:13:25;4.57;;;2.05;;
38843;SDS011;24596;48.080;8.362;2023-07-29T12:15:50;5.55;;;2.10;;
38843;SDS011;24596;48.080;8.362;2023-07-29T12:18:15;4.00;;;1.70;;
38843;SDS011;24596;48.080;8.362;2023-07-29T12:20:40;5.60;;;2.03;;
38843;SDS011;24596;48.080;8.362;2023-07-29T12:23:06;5.68;;;2.13;;
38843;SDS011;24596;48.080;8.362;2023-07-29T12:25:32;4.78;;;2.10;;
38843;SDS011;24596;48.080;8.362;2023-07-29T12:28:07;6.05;;;2.05;;
38843;SDS011;24596;48.080;8.362;2023-07-29T12:30:32;4.53;;;2.08;;
38843;SDS011;24596;48.080;8.362;2023-07-29T12:32:57;4.85;;;2.22;;
38843;SDS011;24596;48.080;8.362;2023-07-29T12:35:23;5.05;;;2.03;;
38843;SDS011;24596;48.080;8.362;2023-07-29T12:37:58;7.38;;;2.08;;
38843;SDS011;24596;48.080;8.362;2023-07-29T12:40:23;4.07;;;1.90;;
38843;SDS011;24596;48.080;8.362;2023-07-29T12:42:49;4.22;;;2.00;;
38843;SDS011;24596;48.080;8.362;2023-07-29T12:45:15;4.63;;;2.45;;
38843;SDS011;24596;48.080;8.362;2023-07-29T12:47:41;3.90;;;1.92;;
38843;SDS011;24596;48.080;8.362;2023-07-29T12:50:06;4.17;;;1.80;;
38843;SDS011;24596;48.080;8.362;2023-07-29T12:52:31;7.68;;;2.00;;
38843;SDS011;24596;48.080;8.362;2023-07-29T12:54:56;4.90;;;2.23;;
38843;SDS011;24596;48.080;8.362;2023-07-29T12:57:21;3.73;;;1.93;;
38843;SDS011;24596;48.080;8.362;2023-07-29T12:59:47;5.10;;;2.50;;
38843;SDS011;24596;48.080;8.362;2023-07-29T13:02:12;6.33;;;2.77;;
38843;SDS011;24596;48.080;8.362;2023-07-29T13:04:37;3.90;;;1.93;;
38843;SDS011;24596;48.080;8.362;2023-07-29T13:07:02;4.73;;;2.13;;
38843;SDS011;24596;48.080;8.362;2023-07-29T13:09:27;5.70;;;2.03;;
38843;SDS011;24596;48.080;8.362;2023-07-29T13:11:53;6.03;;;2.53;;
38843;SDS011;24596;48.080;8.362;2023-07-29T13:14:18;2.90;;;1.63;;
38843;SDS011;24596;48.080;8.362;2023-07-29T13:16:43;3.97;;;1.97;;
38843;SDS011;24596;48.080;8.362;2023-07-29T13:19:08;5.20;;;2.43;;
38843;SDS011;24596;48.080;8.362;2023-07-29T13:21:33;4.90;;;2.28;;
38843;SDS011;24596;48.080;8.362;2023-07-29T13:23:59;5.27;;;2.03;;
38843;SDS011;24596;48.080;8.362;2023-07-29T13:26:24;3.42;;;1.80;;
38843;SDS011;24596;48.080;8.362;2023-07-29T13:28:49;4.28;;;1.83;;
38843;SDS011;24596;48.080;8.362;2023-07-29T13:31:14;4.35;;;2.10;;
38843;SDS011;24596;48.080;8.362;2023-07-29T13:33:40;4.00;;;2.10;;
38843;SDS011;24596;48.080;8.362;2023-07-29T13:36:05;5.00;;;2.10;;
38843;SDS011;24596;48.080;8.362;2023-07-29T13:38:30;5.63;;;2.42;;
38843;SDS011;24596;48.080;8.362;2023-07-29T13:40:55;5.72;;;2.47;;
38843;SDS011;24596;48.080;8.362;2023-07-29T13:43:21;4.78;;;2.10;;
38843;SDS011;24596;48.080;8.362;2023-07-29T13:45:46;3.80;;;2.00;;
38843;SDS011;24596;48.080;8.362;2023-07-29T13:48:13;6.45;;;2.15;;
38843;SDS011;24596;48.080;8.362;2023-07-29T13:50:39;4.50;;;2.10;;
38843;SDS011;24596;48.080;8.362;2023-07-29T13:53:04;4.03;;;1.95;;
38843;SDS011;24596;48.080;8.362;2023-07-29T13:55:29;4.90;;;2.33;;
38843;SDS011;24596;48.080;8.362;2023-07-29T13:57:54;5.82;;;2.00;;
38843;SDS011;24596;48.080;8.362;2023-07-29T14:00:20;5.68;;;2.10;;
38843;SDS011;24596;48.080;8.362;2023-07-29T14:02:45;5.20;;;2.60;;
38843;SDS011;24596;48.080;8.362;2023-07-29T14:05:10;5.30;;;2.20;;
38843;SDS011;24596;48.080;8.362;2023-07-29T14:07:36;4.68;;;2.15;;
38843;SDS011;24596;48.080;8.362;2023-07-29T14:10:02;6.75;;;2.38;;
38843;SDS011;24596;48.080;8.362;2023-07-29T14:12:27;5.47;;;1.80;;
38843;SDS011;24596;48.080;8.362;2023-07-29T14:14:52;4.72;;;2.10;;
38843;SDS011;24596;48.080;8.362;2023-07-29T14:17:17;4.63;;;2.13;;
38843;SDS011;24596;48.080;8.362;2023-07-29T14:19:43;4.67;;;2.27;;
38843;SDS011;24596;48.080;8.362;2023-07-29T14:22:08;4.88;;;2.13;;
38843;SDS011;24596;48.080;8.362;2023-07-29T14:24:33;4.32;;;2.08;;
38843;SDS011;24596;48.080;8.362;2023-07-29T14:26:58;4.80;;;2.40;;
38843;SDS011;24596;48.080;8.362;2023-07-29T14:29:23;4.77;;;2.00;;
38843;SDS011;24596;48.080;8.362;2023-07-29T14:31:49;4.68;;;2.10;;
38843;SDS011;24596;48.080;8.362;2023-07-29T14:34:14;3.90;;;2.07;;
38843;SDS011;24596;48.080;8.362;2023-07-29T14:36:39;4.45;;;2.20;;
38843;SDS011;24596;48.080;8.362;2023-07-29T14:39:04;4.00;;;1.97;;
38843;SDS011;24596;48.080;8.362;2023-07-29T14:41:30;4.85;;;1.80;;
38843;SDS011;24596;48.080;8.362;2023-07-29T14:43:55;5.32;;;2.28;;
38843;SDS011;24596;48.080;8.362;2023-07-29T14:46:20;4.83;;;2.40;;
38843;SDS011;24596;48.080;8.362;2023-07-29T14:48:46;4.13;;;2.00;;
38843;SDS011;24596;48.080;8.362;2023-07-29T14:51:12;6.70;;;2.15;;
38843;SDS011;24596;48.080;8.362;2023-07-29T14:53:37;4.07;;;1.95;;
38843;SDS011;24596;48.080;8.362;2023-07-29T14:56:02;5.07;;;1.87;;